Time;durP1;ratioP1;P1;durP2;ratioP2;P2;SDS_P1;SDS_P2;PMS_P1;PMS_P2;Temp;Humidity;BMP_temperature;BMP_pressure;BME280_temperature;BME280_humidity;BME280_pressure;Samples;Min_cycle;Max_cycle;Signal;HPM_P1;HPM_P2
2022/11/22 00:00:59;;;;;;;36.45;18.77;;;-0.90;99.90;;;;;;5013160;28;20045;-70
2022/11/22 00:03:25;;;;;;;34.35;17.55;;;-0.90;99.90;;;;;;5012059;28;20044;-70
2022/11/22 00:05:50;;;;;;;37.10;18.90;;;-0.90;99.90;;;;;;5004177;28;20084;-70
2022/11/22 00:08:16;;;;;;;33.88;17.70;;;-0.90;99.90;;;;;;4993477;28;20042;-70
2022/11/22 00:10:42;;;;;;;33.95;16.90;;;-0.90;99.90;;;;;;4993911;28;20041;-70
2022/11/22 00:13:08;;;;;;;36.83;18.98;;;-0.90;99.90;;;;;;5000291;28;20029;-70
2022/11/22 00:15:33;;;;;;;37.28;17.92;;;-0.90;99.90;;;;;;4999994;28;20393;-71
2022/11/22 00:17:59;;;;;;;35.97;16.77;;;-0.90;99.90;;;;;;5001195;28;20026;-70
2022/11/22 00:20:24;;;;;;;37.63;19.63;;;-0.90;99.90;;;;;;5013229;28;20045;-69
2022/11/22 00:22:50;;;;;;;35.95;19.52;;;-1.00;99.90;;;;;;5013283;28;20026;-70
2022/11/22 00:25:16;;;;;;;33.53;17.35;;;-1.00;99.90;;;;;;5006304;28;20061;-70
2022/11/22 00:27:41;;;;;;;34.17;18.83;;;-1.00;99.90;;;;;;5006776;28;20106;-71
2022/11/22 00:30:07;;;;;;;35.90;19.83;;;-0.90;99.90;;;;;;5010221;28;20477;-70
2022/11/22 00:32:33;;;;;;;35.60;17.88;;;-1.00;99.90;;;;;;5005316;28;20504;-71
2022/11/22 00:34:58;;;;;;;36.13;18.10;;;-0.90;99.90;;;;;;5001308;28;20062;-70
2022/11/22 00:37:24;;;;;;;42.50;19.35;;;-0.90;99.90;;;;;;5005800;28;20164;-70
2022/11/22 00:39:50;;;;;;;38.72;19.65;;;-0.90;99.90;;;;;;4993626;28;20084;-70
2022/11/22 00:42:16;;;;;;;40.80;21.55;;;-0.90;99.90;;;;;;4993383;28;20474;-70
2022/11/22 00:44:41;;;;;;;38.30;19.73;;;-0.90;99.90;;;;;;4993256;28;20026;-70
2022/11/22 00:47:07;;;;;;;37.22;18.73;;;-0.90;99.90;;;;;;4992864;28;20022;-70
2022/11/22 00:49:32;;;;;;;43.25;22.15;;;-0.90;99.90;;;;;;4993264;28;20113;-70
2022/11/22 00:51:58;;;;;;;42.95;21.08;;;-0.90;99.90;;;;;;4993659;28;20049;-69
2022/11/22 00:54:23;;;;;;;44.47;21.45;;;-0.90;99.90;;;;;;4993290;28;20026;-69
2022/11/22 00:56:49;;;;;;;43.90;20.08;;;-0.90;99.90;;;;;;4993519;28;20450;-70
2022/11/22 00:59:14;;;;;;;41.75;20.98;;;-0.90;99.90;;;;;;4992634;28;20117;-70
2022/11/22 01:01:40;;;;;;;43.65;21.90;;;-0.90;99.90;;;;;;4994386;28;20030;-70
2022/11/22 01:04:05;;;;;;;38.35;19.02;;;-0.90;99.90;;;;;;4996746;28;20101;-69
2022/11/22 01:06:31;;;;;;;40.38;21.85;;;-0.90;99.90;;;;;;4996827;28;20080;-69
2022/11/22 01:08:56;;;;;;;41.58;19.75;;;-0.90;99.90;;;;;;4996554;28;20073;-69
2022/11/22 01:11:22;;;;;;;40.67;21.35;;;-0.90;99.90;;;;;;4995993;28;20046;-70
2022/11/22 01:13:48;;;;;;;39.78;20.65;;;-0.90;99.90;;;;;;4996586;28;20026;-70
2022/11/22 01:16:14;;;;;;;42.97;20.92;;;-0.90;99.90;;;;;;4996975;28;20152;-70
2022/11/22 01:18:40;;;;;;;42.60;21.02;;;-0.90;99.90;;;;;;4996275;28;20026;-70
2022/11/22 01:21:05;;;;;;;45.80;22.25;;;-0.90;99.90;;;;;;4996352;28;20037;-69
2022/11/22 01:23:32;;;;;;;42.30;21.55;;;-0.90;99.90;;;;;;4996581;28;20050;-69
2022/11/22 01:25:58;;;;;;;39.28;20.17;;;-0.90;99.90;;;;;;4996193;28;20382;-70
2022/11/22 01:28:23;;;;;;;43.53;20.67;;;-0.90;99.90;;;;;;4996177;28;20018;-70
2022/11/22 01:30:51;;;;;;;48.38;23.27;;;-0.90;99.90;;;;;;4996502;28;20034;-69
2022/11/22 01:33:16;;;;;;;40.35;21.45;;;-0.90;99.90;;;;;;4996706;28;20471;-69
2022/11/22 01:35:42;;;;;;;45.15;22.83;;;-0.90;99.90;;;;;;4995595;28;20045;-70
2022/11/22 01:38:08;;;;;;;46.05;23.23;;;-0.90;99.90;;;;;;4995977;28;20031;-69
2022/11/22 01:40:33;;;;;;;42.55;22.58;;;-0.90;99.90;;;;;;4996053;28;20066;-69
2022/11/22 01:43:00;;;;;;;54.70;25.30;;;-0.90;99.90;;;;;;4996280;28;20026;-69
2022/11/22 01:45:28;;;;;;;43.92;22.55;;;-0.90;99.90;;;;;;4995366;28;20049;-71
2022/11/22 01:48:06;;;;;;;49.92;25.05;;;-0.90;99.90;;;;;;4995723;28;20394;-70
2022/11/22 01:50:35;;;;;;;47.97;24.55;;;-0.80;99.90;;;;;;4995909;28;20147;-69
2022/11/22 01:53:05;;;;;;;43.53;23.48;;;-0.80;99.90;;;;;;4996080;28;20053;-69
2022/11/22 01:55:32;;;;;;;47.28;24.58;;;-0.80;99.90;;;;;;4996062;28;20038;-69
2022/11/22 01:57:59;;;;;;;48.95;24.70;;;-0.80;99.90;;;;;;4995381;28;20033;-70
2022/11/22 02:00:25;;;;;;;49.65;23.98;;;-0.80;99.90;;;;;;4996254;28;20077;-69
2022/11/22 02:02:55;;;;;;;52.97;25.77;;;-0.80;99.90;;;;;;4995912;28;20058;-69
2022/11/22 02:05:24;;;;;;;46.47;24.40;;;-0.80;99.90;;;;;;4996149;28;20102;-69
2022/11/22 02:08:02;;;;;;;47.85;25.90;;;-0.80;99.90;;;;;;4995512;28;20034;-70
2022/11/22 02:10:29;;;;;;;50.20;26.73;;;-0.80;99.90;;;;;;4994929;28;20486;-70
2022/11/22 02:12:59;;;;;;;46.50;25.00;;;-0.80;99.90;;;;;;4995636;28;20034;-69
2022/11/22 02:15:24;;;;;;;47.38;24.48;;;-0.80;99.90;;;;;;4995614;28;20494;-69
2022/11/22 02:17:50;;;;;;;51.65;25.25;;;-0.70;99.90;;;;;;4995138;28;20124;-70
2022/11/22 02:20:16;;;;;;;48.20;25.13;;;-0.70;99.90;;;;;;4995538;28;20173;-69
2022/11/22 02:22:57;;;;;;;49.40;25.95;;;-0.70;99.90;;;;;;4995703;28;20073;-70
2022/11/22 02:25:40;;;;;;;49.03;25.67;;;-0.60;99.90;;;;;;4995462;28;20022;-70
2022/11/22 02:28:11;;;;;;;;;;;-0.70;99.90;;;;;;4995507;28;20398;-70
2022/11/22 02:30:37;;;;;;;53.55;26.00;;;-0.70;99.90;;;;;;4995092;28;19906;-70
2022/11/22 02:33:03;;;;;;;50.75;24.65;;;-0.70;99.90;;;;;;4994530;28;20030;-70
2022/11/22 02:35:29;;;;;;;51.20;26.25;;;-0.70;99.90;;;;;;4997486;28;20520;-71
2022/11/22 02:38:06;;;;;;;54.33;27.60;;;-0.60;99.90;;;;;;5014341;28;20083;-70
2022/11/22 02:40:38;;;;;;;49.42;25.63;;;-0.70;99.90;;;;;;5014455;28;20017;-70
2022/11/22 02:43:11;;;;;;;54.08;28.23;;;-0.70;99.90;;;;;;5014958;28;20022;-70
2022/11/22 02:45:36;;;;;;;62.28;29.80;;;-0.70;99.90;;;;;;5014473;28;20108;-69
2022/11/22 02:48:07;;;;;;;67.53;31.88;;;-0.70;99.90;;;;;;5014355;28;20426;-70
2022/11/22 02:50:34;;;;;;;58.88;27.73;;;-0.70;99.90;;;;;;5014149;28;20109;-70
2022/11/22 02:52:59;;;;;;;61.53;29.15;;;-0.70;99.90;;;;;;5013767;28;20113;-70
2022/11/22 02:55:25;;;;;;;58.15;28.88;;;-0.60;99.90;;;;;;5014752;28;20068;-70
2022/11/22 02:57:50;;;;;;;65.93;31.20;;;-0.60;99.90;;;;;;5013997;28;20033;-70
2022/11/22 03:00:16;;;;;;;56.63;29.02;;;-0.60;99.90;;;;;;5014188;28;20022;-70
2022/11/22 03:02:41;;;;;;;56.20;29.02;;;-0.60;99.90;;;;;;5013296;28;20033;-70
2022/11/22 03:05:07;;;;;;;55.55;28.42;;;-0.60;99.90;;;;;;5014594;28;20042;-69
2022/11/22 03:07:33;;;;;;;57.20;27.67;;;-0.60;99.90;;;;;;5013687;28;20041;-70
2022/11/22 03:09:58;;;;;;;58.78;29.80;;;-0.50;99.90;;;;;;5013419;28;20014;-70
2022/11/22 03:12:24;;;;;;;58.22;30.58;;;-0.50;99.90;;;;;;5013946;28;20026;-69
2022/11/22 03:14:49;;;;;;;57.92;29.20;;;-0.50;99.90;;;;;;5014417;28;20026;-70
2022/11/22 03:17:15;;;;;;;63.47;30.58;;;-0.50;99.90;;;;;;5014466;28;20406;-69
2022/11/22 03:19:41;;;;;;;56.35;29.52;;;-0.50;99.90;;;;;;5013691;28;20029;-70
2022/11/22 03:22:07;;;;;;;63.17;30.45;;;-0.50;99.90;;;;;;5013164;28;20018;-70
2022/11/22 03:24:32;;;;;;;62.67;30.08;;;-0.50;99.90;;;;;;5013840;28;20105;-69
2022/11/22 03:26:58;;;;;;;56.55;28.48;;;-0.50;99.90;;;;;;5013631;28;20026;-70
2022/11/22 03:29:23;;;;;;;57.92;31.40;;;-0.50;99.90;;;;;;5013807;28;20092;-70
2022/11/22 03:31:49;;;;;;;62.42;29.92;;;-0.50;99.90;;;;;;5013269;28;20026;-69
2022/11/22 03:34:15;;;;;;;54.15;29.98;;;-0.50;99.90;;;;;;5013842;28;20417;-70
2022/11/22 03:36:41;;;;;;;62.42;30.15;;;-0.40;99.90;;;;;;5013771;28;20081;-70
2022/11/22 03:39:06;;;;;;;65.85;32.08;;;-0.40;99.90;;;;;;5013713;28;20442;-69
2022/11/22 03:41:32;;;;;;;55.90;29.85;;;-0.40;99.90;;;;;;4997898;28;20092;-70
2022/11/22 03:43:57;;;;;;;59.13;29.23;;;-0.40;99.90;;;;;;4994411;28;20026;-70
2022/11/22 03:46:23;;;;;;;64.03;31.70;;;-0.40;99.90;;;;;;5002081;28;20452;-70
2022/11/22 03:48:48;;;;;;;65.45;30.75;;;-0.40;99.90;;;;;;5013641;28;20040;-69
2022/11/22 03:51:14;;;;;;;67.20;32.13;;;-0.40;99.90;;;;;;5012609;28;20105;-70
2022/11/22 03:53:39;;;;;;;67.45;31.48;;;-0.40;99.90;;;;;;5000199;28;20027;-70
2022/11/22 03:56:05;;;;;;;63.70;32.63;;;-0.30;99.90;;;;;;4995913;28;20374;-70
2022/11/22 03:58:31;;;;;;;66.97;32.60;;;-0.40;99.90;;;;;;4993959;28;20049;-69
2022/11/22 04:00:58;;;;;;;66.72;31.83;;;-0.30;99.90;;;;;;5002244;28;20013;-70
2022/11/22 04:03:24;;;;;;;70.18;33.70;;;-0.30;99.90;;;;;;5012900;28;20569;-70
2022/11/22 04:05:49;;;;;;;67.60;33.30;;;-0.30;99.90;;;;;;5012851;28;20022;-71
2022/11/22 04:08:15;;;;;;;68.45;33.88;;;-0.30;99.90;;;;;;4993902;28;20520;-70
2022/11/22 04:10:40;;;;;;;67.50;32.55;;;-0.30;99.90;;;;;;4994002;28;20377;-69
2022/11/22 04:13:06;;;;;;;56.40;30.08;;;-0.30;99.90;;;;;;5006883;28;20038;-70
2022/11/22 04:15:32;;;;;;;62.05;31.60;;;-0.20;99.90;;;;;;5013237;28;20441;-69
2022/11/22 04:17:58;;;;;;;67.30;32.45;;;-0.20;99.90;;;;;;5013088;28;20034;-70
2022/11/22 04:23:20;;;;;;;61.15;30.80;;;-0.20;99.90;;;;;;5013236;28;20033;-70
2022/11/22 04:25:51;;;;;;;64.03;31.63;;;-0.20;99.90;;;;;;4994764;28;20034;-70
2022/11/22 04:28:18;;;;;;;72.05;32.17;;;-0.20;99.90;;;;;;4993535;28;20034;-70
2022/11/22 04:33:29;;;;;;;62.90;33.53;;;-0.10;99.90;;;;;;5012457;28;20088;-70
2022/11/22 04:35:55;;;;;;;60.03;31.63;;;-0.10;99.90;;;;;;5013139;28;20037;-71
2022/11/22 04:38:21;;;;;;;60.58;31.27;;;-0.10;99.90;;;;;;5015283;28;20561;-71
2022/11/22 04:40:47;;;;;;;59.40;31.20;;;-0.10;99.90;;;;;;5011547;28;20030;-70
2022/11/22 04:46:03;;;;;;;59.17;30.50;;;0.00;99.90;;;;;;5017038;28;20528;-70
2022/11/22 04:48:28;;;;;;;60.70;31.40;;;0.00;99.90;;;;;;5016197;28;20037;-70
2022/11/22 04:53:38;;;;;;;66.43;32.08;;;0.10;99.90;;;;;;5016785;28;20037;-69
2022/11/22 04:56:03;;;;;;;60.35;31.02;;;0.10;99.90;;;;;;5016732;28;20022;-69
2022/11/22 04:58:29;;;;;;;63.15;31.33;;;0.10;99.90;;;;;;5016382;28;20437;-69
2022/11/22 05:00:54;;;;;;;65.50;30.80;;;0.20;99.90;;;;;;5015826;28;20102;-70
2022/11/22 05:03:20;;;;;;;60.13;31.73;;;0.10;99.90;;;;;;5016311;28;20097;-69
2022/11/22 05:05:46;;;;;;;58.40;31.52;;;0.20;99.90;;;;;;5016305;28;20444;-69
2022/11/22 05:08:12;;;;;;;64.53;33.15;;;0.20;99.90;;;;;;5097352;22;20041;-73
2022/11/22 05:10:56;;;;;;;65.30;33.42;;;0.20;99.90;;;;;;5035085;28;20030;-73
2022/11/22 05:13:24;;;;;;;65.63;31.65;;;0.20;99.90;;;;;;5035772;28;20040;-73
2022/11/22 05:15:50;;;;;;;62.45;32.58;;;0.20;99.90;;;;;;5036506;28;20022;-73
2022/11/22 05:18:20;;;;;;;60.85;29.45;;;0.20;99.90;;;;;;5042748;28;20507;-72
2022/11/22 05:20:45;;;;;;;61.42;31.55;;;0.20;99.90;;;;;;5056067;28;20032;-74
2022/11/22 05:25:56;;;;;;;58.67;30.90;;;0.20;99.90;;;;;;5036417;28;20028;-73
2022/11/22 05:28:22;;;;;;;66.90;31.85;;;0.20;99.90;;;;;;5034882;28;20021;-73
2022/11/22 05:30:47;;;;;;;65.03;31.77;;;0.20;99.90;;;;;;5049635;28;20029;-73
2022/11/22 05:33:13;;;;;;;63.45;31.88;;;0.30;99.90;;;;;;5055235;28;20068;-73
2022/11/22 05:35:38;;;;;;;62.65;31.58;;;0.30;99.90;;;;;;5056009;28;20063;-73
2022/11/22 05:38:04;;;;;;;60.83;30.83;;;0.30;99.90;;;;;;5055553;28;20069;-73
2022/11/22 05:40:29;;;;;;;60.00;28.02;;;0.30;99.90;;;;;;5055545;28;20023;-72
2022/11/22 05:42:57;;;;;;;62.58;32.78;;;0.30;99.90;;;;;;5055179;28;20025;-73
2022/11/22 05:45:22;;;;;;;67.82;32.72;;;0.30;99.90;;;;;;5056001;28;20043;-73
2022/11/22 05:47:48;;;;;;;60.50;30.50;;;0.30;99.90;;;;;;5055419;28;20496;-73
2022/11/22 05:50:13;;;;;;;72.40;33.70;;;0.30;99.90;;;;;;5055627;28;20033;-73
2022/11/22 05:52:39;;;;;;;62.15;32.03;;;0.30;99.90;;;;;;5053655;28;20032;-73
2022/11/22 05:55:05;;;;;;;58.10;30.80;;;0.30;99.90;;;;;;5055557;28;20021;-73
2022/11/22 05:57:31;;;;;;;66.07;33.40;;;0.40;99.90;;;;;;5055398;28;20049;-73
2022/11/22 05:59:57;;;;;;;62.72;30.38;;;0.30;99.90;;;;;;5055455;28;20025;-73
2022/11/22 06:02:23;;;;;;;56.90;31.45;;;0.40;99.90;;;;;;5038665;28;20026;-73
2022/11/22 06:04:49;;;;;;;59.38;31.05;;;0.40;99.90;;;;;;5033600;28;20025;-73
2022/11/22 06:07:14;;;;;;;58.65;30.42;;;0.40;99.90;;;;;;5045297;28;20052;-73
2022/11/22 06:09:40;;;;;;;56.47;29.35;;;0.40;99.90;;;;;;5055021;28;20060;-73
2022/11/22 06:12:06;;;;;;;63.80;31.65;;;0.40;99.90;;;;;;5055089;28;20052;-73
2022/11/22 06:14:31;;;;;;;61.45;29.98;;;0.40;99.90;;;;;;5053567;28;20025;-73
2022/11/22 06:16:57;;;;;;;58.53;30.25;;;0.40;99.90;;;;;;5054101;28;20029;-73
2022/11/22 06:19:22;;;;;;;50.78;29.13;;;0.40;99.90;;;;;;5035908;28;20043;-73
2022/11/22 06:21:48;;;;;;;55.92;29.17;;;0.40;99.90;;;;;;5050281;28;20268;-73
2022/11/22 06:24:13;;;;;;;58.60;29.63;;;0.50;99.90;;;;;;5052524;28;20021;-73
2022/11/22 06:26:39;;;;;;;56.70;29.98;;;0.50;99.90;;;;;;5054223;28;20033;-73
2022/11/22 06:29:05;;;;;;;56.35;29.27;;;0.50;99.90;;;;;;5054634;28;20021;-73
2022/11/22 06:31:30;;;;;;;57.03;30.50;;;0.50;99.90;;;;;;5054736;28;20151;-73
2022/11/22 06:34:01;;;;;;;59.92;30.77;;;0.50;99.90;;;;;;5054929;28;20134;-74
2022/11/22 06:36:29;;;;;;;58.65;30.10;;;0.50;99.90;;;;;;5039940;28;20037;-73
2022/11/22 06:38:55;;;;;;;53.45;29.48;;;0.60;99.90;;;;;;5034099;28;20017;-73
2022/11/22 06:41:24;;;;;;;56.92;28.65;;;0.60;99.90;;;;;;5051920;28;20020;-73
2022/11/22 06:43:51;;;;;;;54.40;28.42;;;0.60;99.90;;;;;;5054599;28;20039;-73
2022/11/22 06:46:18;;;;;;;53.50;28.85;;;0.60;99.90;;;;;;5054571;28;20013;-74
2022/11/22 06:48:44;;;;;;;55.67;29.08;;;0.60;99.90;;;;;;5053972;28;20029;-73
2022/11/22 06:51:12;;;;;;;58.78;30.13;;;0.60;99.90;;;;;;5052527;28;20477;-73
2022/11/22 06:53:38;;;;;;;57.90;29.38;;;0.60;99.90;;;;;;5054526;28;20476;-73
2022/11/22 06:56:06;;;;;;;51.55;30.15;;;0.70;99.90;;;;;;5054714;28;20025;-74
2022/11/22 06:58:32;;;;;;;63.90;29.83;;;0.70;99.90;;;;;;5053374;28;20029;-73
2022/11/22 07:01:04;;;;;;;57.03;29.85;;;0.70;99.90;;;;;;5053966;28;20102;-73
2022/11/22 07:03:30;;;;;;;57.25;29.60;;;0.70;99.90;;;;;;5051144;28;20025;-73
2022/11/22 07:05:56;;;;;;;60.80;31.40;;;0.70;99.90;;;;;;5034518;28;20101;-73
2022/11/22 07:08:24;;;;;;;54.20;30.52;;;0.70;99.90;;;;;;5034947;28;20037;-72
2022/11/22 07:10:50;;;;;;;59.45;30.95;;;0.70;99.90;;;;;;5053050;28;20056;-73
2022/11/22 07:13:16;;;;;;;56.42;30.30;;;0.70;99.90;;;;;;5053981;28;20053;-73
2022/11/22 07:15:41;;;;;;;57.38;31.67;;;0.70;99.90;;;;;;5049472;28;20029;-73
2022/11/22 07:18:07;;;;;;;57.33;29.88;;;0.70;99.90;;;;;;5033589;28;20029;-72
2022/11/22 07:20:32;;;;;;;56.42;31.20;;;0.80;99.90;;;;;;5034138;28;20017;-72
2022/11/22 07:22:58;;;;;;;66.13;32.70;;;0.80;99.90;;;;;;5033884;28;20381;-72
2022/11/22 07:25:23;;;;;;;66.32;33.70;;;0.70;99.90;;;;;;5038432;28;20025;-71
2022/11/22 07:27:52;;;;;;;56.20;29.17;;;0.70;99.90;;;;;;5053328;28;20026;-72
2022/11/22 07:30:18;;;;;;;59.00;31.05;;;0.70;99.90;;;;;;5053381;28;20455;-72
2022/11/22 07:32:47;;;;;;;53.42;28.38;;;0.80;99.90;;;;;;5053413;28;20059;-71
2022/11/22 07:35:16;;;;;;;56.50;30.98;;;0.80;99.90;;;;;;5051008;28;20043;-71
2022/11/22 07:37:41;;;;;;;64.95;31.50;;;0.80;99.90;;;;;;5052888;28;20090;-71
2022/11/22 07:40:07;;;;;;;57.50;30.77;;;0.80;99.90;;;;;;5053194;28;20025;-71
2022/11/22 07:42:33;;;;;;;61.35;32.83;;;0.80;99.90;;;;;;5036713;28;20060;-71
2022/11/22 07:44:58;;;;;;;57.28;29.45;;;0.70;99.90;;;;;;5033202;28;20065;-71
2022/11/22 07:47:24;;;;;;;63.40;32.20;;;0.80;99.90;;;;;;5032895;28;20449;-72
2022/11/22 07:49:50;;;;;;;60.55;32.28;;;0.80;99.90;;;;;;5036863;28;20029;-72
2022/11/22 07:52:15;;;;;;;61.33;32.42;;;0.80;99.90;;;;;;5047873;28;20033;-72
2022/11/22 07:54:41;;;;;;;59.03;31.23;;;0.80;99.90;;;;;;5053558;28;20384;-74
2022/11/22 07:57:06;;;;;;;65.40;33.00;;;0.80;99.90;;;;;;5051194;28;20036;-73
2022/11/22 07:59:31;;;;;;;59.22;31.63;;;0.80;99.90;;;;;;5052533;28;20036;-73
2022/11/22 08:01:57;;;;;;;63.08;32.63;;;0.90;99.90;;;;;;5053011;28;20036;-73
2022/11/22 08:04:22;;;;;;;63.22;32.17;;;0.90;99.90;;;;;;5053137;28;20029;-72
2022/11/22 08:06:48;;;;;;;57.35;31.05;;;0.90;99.90;;;;;;5053356;28;20539;-71
2022/11/22 08:09:14;;;;;;;64.30;32.42;;;0.90;99.90;;;;;;5053077;28;20040;-72
2022/11/22 08:11:39;;;;;;;58.25;30.60;;;0.90;99.90;;;;;;5054581;28;20060;-71
2022/11/22 08:14:05;;;;;;;60.85;33.83;;;0.90;99.90;;;;;;5057291;28;20445;-72
2022/11/22 08:16:30;;;;;;;60.50;32.47;;;1.00;99.90;;;;;;5057658;28;20025;-71
2022/11/22 08:18:56;;;;;;;61.63;31.55;;;1.00;99.90;;;;;;5056922;28;20056;-72
2022/11/22 08:21:22;;;;;;;63.40;31.40;;;1.00;99.90;;;;;;5056292;28;20426;-72
2022/11/22 08:23:47;;;;;;;66.97;33.88;;;1.00;99.90;;;;;;5056535;28;20024;-71
2022/11/22 08:26:15;;;;;;;64.50;33.53;;;1.00;99.90;;;;;;5056981;28;20025;-72
2022/11/22 08:28:41;;;;;;;61.10;31.25;;;1.00;99.90;;;;;;5055271;28;20036;-72
2022/11/22 08:31:13;;;;;;;68.78;32.75;;;1.00;99.90;;;;;;5056584;28;20055;-73
2022/11/22 08:33:39;;;;;;;65.82;32.53;;;1.10;99.90;;;;;;5056136;28;20064;-73
2022/11/22 08:36:05;;;;;;;66.70;31.45;;;1.10;99.90;;;;;;5056360;28;20056;-72
2022/11/22 08:38:31;;;;;;;61.03;30.67;;;1.10;99.90;;;;;;5055000;28;20445;-72
2022/11/22 08:40:57;;;;;;;65.07;32.72;;;1.20;99.90;;;;;;5056366;28;20060;-72
2022/11/22 08:43:22;;;;;;;62.08;31.75;;;1.20;99.90;;;;;;5056403;28;20017;-72
2022/11/22 08:45:53;;;;;;;57.60;31.27;;;1.20;99.90;;;;;;5055840;28;20033;-72
2022/11/22 08:48:19;;;;;;;64.47;32.13;;;1.20;99.90;;;;;;5056321;28;20029;-72
2022/11/22 08:51:12;;;;;;;61.90;33.33;;;1.20;99.90;;;;;;5056133;28;20527;-72
2022/11/22 08:53:40;;;;;;;61.45;32.13;;;1.20;99.90;;;;;;5053873;28;20040;-72
2022/11/22 08:56:09;;;;;;;63.55;32.13;;;1.20;99.90;;;;;;5049157;28;20033;-72
2022/11/22 08:58:35;;;;;;;66.22;32.63;;;1.20;99.90;;;;;;5054959;28;20488;-72
2022/11/22 09:01:09;;;;;;;65.38;32.30;;;1.20;99.90;;;;;;5055815;28;20028;-72
2022/11/22 09:03:35;;;;;;;56.03;30.98;;;1.20;99.90;;;;;;5056254;28;20032;-72
2022/11/22 09:06:02;;;;;;;62.50;30.88;;;1.20;99.90;;;;;;5037489;28;20021;-72
2022/11/22 09:08:28;;;;;;;60.28;31.63;;;1.20;99.90;;;;;;5054407;28;20036;-72
2022/11/22 09:10:53;;;;;;;62.40;31.27;;;1.20;99.90;;;;;;5055813;28;20037;-72
2022/11/22 09:13:19;;;;;;;66.45;31.15;;;1.20;99.90;;;;;;5055642;28;20033;-72
2022/11/22 09:15:45;;;;;;;73.88;35.72;;;1.20;99.90;;;;;;5054618;28;20442;-72
2022/11/22 09:18:10;;;;;;;65.25;32.38;;;1.30;99.90;;;;;;5055638;28;20090;-72
2022/11/22 09:20:36;;;;;;;66.22;35.55;;;1.30;99.90;;;;;;5053770;28;20021;-72
2022/11/22 09:23:02;;;;;;;73.28;33.88;;;1.30;99.90;;;;;;5054280;28;20016;-72
2022/11/22 09:25:28;;;;;;;61.13;32.97;;;1.30;99.90;;;;;;5055636;28;20063;-73
2022/11/22 09:27:54;;;;;;;60.65;32.15;;;1.30;99.90;;;;;;5055493;28;20029;-72
2022/11/22 09:30:20;;;;;;;64.18;31.83;;;1.30;99.90;;;;;;5044139;28;20029;-73
2022/11/22 09:32:46;;;;;;;63.20;32.65;;;1.40;99.90;;;;;;5035562;28;20393;-73
2022/11/22 09:35:11;;;;;;;62.92;32.30;;;1.30;99.90;;;;;;5035735;28;20029;-72
2022/11/22 09:37:37;;;;;;;63.28;33.60;;;1.40;99.90;;;;;;5035280;28;20025;-72
2022/11/22 09:40:03;;;;;;;63.50;33.08;;;1.40;99.90;;;;;;5037733;28;20465;-72
2022/11/22 09:42:31;;;;;;;61.33;31.10;;;1.40;99.90;;;;;;5036968;28;20032;-73
2022/11/22 09:45:24;;;;;;;69.65;34.35;;;1.40;99.90;;;;;;5034957;28;20029;-73
2022/11/22 09:48:20;;;;;;;64.43;33.97;;;1.40;99.90;;;;;;5052983;28;20392;-72
2022/11/22 09:50:52;;;;;;;66.28;32.85;;;1.40;99.90;;;;;;5054560;28;20477;-72
2022/11/22 09:53:24;;;;;;;70.68;33.80;;;1.40;99.90;;;;;;5055842;28;20036;-72
2022/11/22 09:55:58;;;;;;;87.07;34.05;;;1.40;99.90;;;;;;5054529;28;20080;-72
2022/11/22 09:58:23;;;;;;;67.05;33.55;;;1.40;99.90;;;;;;5052843;28;20036;-72
2022/11/22 10:00:49;;;;;;;61.92;32.65;;;1.50;99.90;;;;;;5055797;28;20025;-73
2022/11/22 10:03:48;;;;;;;68.78;31.55;;;1.50;99.90;;;;;;5052212;28;20469;-72
2022/11/22 10:06:32;;;;;;;69.28;33.05;;;1.50;99.90;;;;;;5036093;28;20036;-72
2022/11/22 10:09:39;;;;;;;67.60;32.70;;;1.50;99.90;;;;;;5037277;28;20481;-73
2022/11/22 10:12:23;;;;;;;66.63;32.63;;;1.50;99.90;;;;;;5055536;28;20094;-72
2022/11/22 10:15:31;;;;;;;63.88;32.83;;;1.50;99.90;;;;;;5055472;28;20037;-73
2022/11/22 10:18:03;;;;;;;66.15;34.08;;;1.50;99.90;;;;;;5043089;28;20091;-72
2022/11/22 10:20:40;;;;;;;65.28;34.78;;;1.50;99.90;;;;;;5053358;28;20148;-72
2022/11/22 10:23:23;;;;;;;67.32;34.40;;;1.60;99.90;;;;;;5053747;28;20013;-71
2022/11/22 10:26:18;;;;;;;63.50;32.17;;;1.50;99.90;;;;;;5053840;28;20489;-72
2022/11/22 10:28:47;;;;;;;63.17;31.65;;;1.50;99.90;;;;;;5054975;28;20031;-72
2022/11/22 10:31:26;;;;;;;68.97;33.25;;;1.50;99.90;;;;;;5054233;28;20086;-72
2022/11/22 10:33:57;;;;;;;60.65;31.90;;;1.50;99.90;;;;;;5054928;28;20029;-71
2022/11/22 10:36:35;;;;;;;65.80;33.30;;;1.50;99.90;;;;;;5054762;28;20029;-72
2022/11/22 10:39:26;;;;;;;60.33;31.00;;;1.50;99.90;;;;;;5054727;28;20029;-72
2022/11/22 10:42:03;;;;;;;70.07;34.22;;;1.60;99.90;;;;;;5026352;28;20480;-73
2022/11/22 10:44:43;;;;;;;67.88;33.33;;;1.60;99.90;;;;;;5053194;28;20534;-71
2022/11/22 10:47:30;;;;;;;71.95;32.70;;;1.60;99.90;;;;;;5054994;28;20096;-72
2022/11/22 10:50:11;;;;;;;65.30;31.13;;;1.60;99.90;;;;;;5055006;28;20032;-72
2022/11/22 10:52:44;;;;;;;64.68;32.05;;;1.60;99.90;;;;;;5055017;28;20029;-72
2022/11/22 10:55:34;;;;;;;65.90;33.22;;;1.60;99.90;;;;;;5055576;28;20029;-72
2022/11/22 10:58:24;;;;;;;74.38;33.28;;;1.60;99.90;;;;;;5047472;28;20120;-71
2022/11/22 11:01:01;;;;;;;63.33;33.58;;;1.60;99.90;;;;;;5053317;28;20033;-73
2022/11/22 11:03:31;;;;;;;68.07;32.58;;;1.60;99.90;;;;;;5054362;28;20029;-74
2022/11/22 11:06:11;;;;;;;60.63;34.15;;;1.60;99.90;;;;;;5036731;28;20026;-73
2022/11/22 11:08:47;;;;;;;63.33;32.63;;;1.60;99.90;;;;;;5101686;22;20041;-71
2022/11/22 11:11:14;;;;;;;76.07;35.92;;;1.60;99.90;;;;;;5034285;28;20032;-69
2022/11/22 11:13:51;;;;;;;67.38;35.50;;;1.60;99.90;;;;;;5033765;28;20385;-68
2022/11/22 11:16:20;;;;;;;73.32;34.75;;;1.50;99.90;;;;;;5033741;28;20029;-69
2022/11/22 11:19:02;;;;;;;72.22;35.20;;;1.50;99.90;;;;;;5033783;28;20057;-68
2022/11/22 11:21:27;;;;;;;68.45;36.25;;;1.60;99.90;;;;;;5027818;28;20025;-69
2022/11/22 11:23:53;;;;;;;71.35;36.17;;;1.50;99.90;;;;;;5025825;28;20036;-72
2022/11/22 11:26:29;;;;;;;77.32;35.90;;;1.50;99.90;;;;;;5023912;28;20079;-71
2022/11/22 11:29:17;;;;;;;77.13;36.75;;;1.50;99.90;;;;;;5023069;28;20370;-71
2022/11/22 11:31:47;;;;;;;76.97;36.25;;;1.50;99.90;;;;;;5026071;28;20087;-72
2022/11/22 11:34:20;;;;;;;74.53;35.90;;;1.50;99.90;;;;;;5027589;28;20041;-69
2022/11/22 11:36:46;;;;;;;76.07;37.20;;;1.50;99.90;;;;;;5021545;28;20021;-70
2022/11/22 11:39:28;;;;;;;72.88;35.72;;;1.60;99.90;;;;;;5024108;28;20026;-72
2022/11/22 11:41:55;;;;;;;74.95;37.35;;;1.60;99.90;;;;;;5029706;28;20469;-71
2022/11/22 11:44:33;;;;;;;69.93;35.55;;;1.60;99.90;;;;;;5032237;28;20056;-71
2022/11/22 11:46:59;;;;;;;73.63;34.95;;;1.60;99.90;;;;;;5032892;28;20021;-72
2022/11/22 11:49:26;;;;;;;77.22;36.78;;;1.60;99.90;;;;;;5033798;28;20035;-71
2022/11/22 11:52:02;;;;;;;72.68;33.55;;;1.70;99.90;;;;;;5033387;28;20029;-71
2022/11/22 11:54:37;;;;;;;72.35;35.83;;;1.70;99.90;;;;;;5032884;28;20026;-70
2022/11/22 11:57:03;;;;;;;71.82;35.53;;;1.70;99.90;;;;;;5033237;28;20030;-71
2022/11/22 11:59:35;;;;;;;71.72;33.25;;;1.70;99.90;;;;;;5033884;28;20025;-70
2022/11/22 12:02:45;;;;;;;74.90;36.25;;;1.80;99.90;;;;;;5033252;28;20026;-69
2022/11/22 12:05:13;;;;;;;71.30;32.40;;;1.80;99.90;;;;;;5001480;28;20053;-70
2022/11/22 12:07:44;;;;;;;71.70;32.22;;;1.80;99.90;;;;;;5032724;28;20022;-69
2022/11/22 12:10:40;;;;;;;67.53;33.17;;;1.80;99.90;;;;;;5030283;28;20405;-70
2022/11/22 12:13:14;;;;;;;69.43;34.75;;;1.80;99.90;;;;;;5030976;28;20036;-70
2022/11/22 12:15:45;;;;;;;62.30;33.53;;;1.80;99.90;;;;;;5015257;28;20053;-69
2022/11/22 12:18:26;;;;;;;68.63;33.88;;;1.90;99.90;;;;;;5025612;28;20022;-70
2022/11/22 12:21:06;;;;;;;69.88;33.65;;;1.90;99.90;;;;;;5033113;28;20013;-70
2022/11/22 12:23:57;;;;;;;63.53;32.45;;;1.90;99.90;;;;;;5033568;28;20482;-70
2022/11/22 12:26:22;;;;;;;68.55;32.90;;;2.00;99.90;;;;;;5032177;28;20021;-69
2022/11/22 12:28:49;;;;;;;67.05;31.85;;;1.90;99.90;;;;;;5033336;28;20079;-69
2022/11/22 12:31:22;;;;;;;74.55;35.08;;;2.00;99.90;;;;;;5033437;28;20452;-69
2022/11/22 12:33:59;;;;;;;78.78;32.83;;;2.00;99.90;;;;;;5032817;28;20033;-69
2022/11/22 12:36:55;;;;;;;68.47;36.50;;;2.10;99.90;;;;;;5032987;28;20561;-69
2022/11/22 12:39:26;;;;;;;64.57;33.28;;;2.10;99.90;;;;;;5033312;28;20034;-69
2022/11/22 12:42:15;;;;;;;70.78;34.17;;;2.10;99.90;;;;;;5033132;28;20105;-69
2022/11/22 12:45:04;;;;;;;78.72;35.92;;;2.20;99.90;;;;;;5033596;28;20548;-69
2022/11/22 12:47:36;;;;;;;83.28;33.38;;;2.20;99.90;;;;;;5032192;28;20029;-69
2022/11/22 12:50:09;;;;;;;77.47;34.25;;;2.20;99.90;;;;;;5032934;28;20027;-69
2022/11/22 12:52:51;;;;;;;67.65;34.03;;;2.30;99.90;;;;;;5033780;28;20080;-69
2022/11/22 12:55:25;;;;;;;73.20;33.70;;;2.30;99.90;;;;;;5033435;28;20029;-69
2022/11/22 12:58:13;;;;;;;78.13;33.33;;;2.30;99.90;;;;;;5034616;28;20026;-69